Plessis, New York
Current Conditions -  °F | °C
As of 10:58 AM on Saturday 22 Nov 2014 (Local Time) from KGTB Reporting Station
Overcast Overcast  
Wind Chill: 20°   Ceiling: 4300
Heat Index: 32°   Visibility: 10mi
Dew Point: 10°   Wind: 17mph
Humidity: 40%   Direction: 210°SSW
Pressure: 30.1"   Gusts: NA
Location:  44.27°N, 75.85°W
Report Text: KGTB 221558Z AUTO 21015KT 10SM BKN043 BKN060 OVC170 00/M12 A3010 RMK AO2 CIG 042 RWY21 SLP203 T10021125
Loading
Personal Weather Stations






























Interactive Weather Map New forecast layout! Learn more

10-Day Weather Forecast

Advertisements
Track Severe Weather on mobile